Time;durP1;ratioP1;P1;durP2;ratioP2;P2;SDS_P1;SDS_P2;PMS_P1;PMS_P2;Temp;Humidity;BMP_temperature;BMP_pressure;BME280_temperature;BME280_humidity;BME280_pressure;Samples;Min_cycle;Max_cycle;Signal;HPM_P1;HPM_P2
2023/07/22 00:03:49;;;;;;;8.53;6.00;;;;;;;14.53;72.46;100684.56;15559342;28;20104;-49
2023/07/22 00:11:22;;;;;;;8.55;6.38;;;;;;;14.70;72.34;100697.34;15540891;28;20812;-51
2023/07/22 00:18:56;;;;;;;10.83;6.60;;;;;;;15.01;71.41;100690.66;15526461;28;20074;-50
2023/07/22 00:26:29;;;;;;;7.65;6.38;;;;;;;14.97;71.70;100684.13;15545137;28;20447;-50
2023/07/22 00:34:03;;;;;;;9.70;6.43;;;;;;;15.04;71.65;100682.09;15539872;28;20137;-49
2023/07/22 00:41:36;;;;;;;7.93;7.13;;;;;;;14.90;72.27;100692.34;15556385;28;20050;-48
2023/07/22 00:49:12;;;;;;;9.23;7.88;;;;;;;15.02;71.81;100689.63;15553285;28;20046;-47
2023/07/22 00:56:47;;;;;;;9.38;7.85;;;;;;;14.90;73.13;100692.34;15553683;28;20108;-48
2023/07/22 01:04:24;;;;;;;8.05;6.57;;;;;;;14.48;75.57;100689.06;15537427;28;20557;-51
2023/07/22 01:11:57;;;;;;;8.10;7.30;;;;;;;14.90;74.54;100700.47;15529473;28;20037;-48
2023/07/22 01:19:33;;;;;;;;;;;;;;;14.49;75.68;100707.72;15554336;28;20046;-50
2023/07/22 01:27:10;;;;;;;10.75;6.97;;;;;;;14.77;75.52;100696.16;15555120;28;19921;-52
2023/07/22 01:34:42;;;;;;;11.10;8.52;;;;;;;14.41;77.02;100691.84;15537005;28;20033;-55
2023/07/22 01:42:17;;;;;;;9.02;7.70;;;;;;;14.59;76.96;100696.31;15536733;28;20038;-50
2023/07/22 01:49:49;;;;;;;10.00;8.13;;;;;;;14.12;79.66;100707.09;15526653;28;20052;-52
2023/07/22 01:57:24;;;;;;;9.82;7.70;;;;;;;14.07;79.84;100723.19;15510699;28;20041;-50
2023/07/22 02:04:56;;;;;;;12.55;8.27;;;;;;;14.37;78.60;100724.97;15520290;28;20119;-50
2023/07/22 02:12:31;;;;;;;10.25;8.07;;;;;;;14.15;79.12;100732.81;15551001;28;20037;-47
2023/07/22 02:20:05;;;;;;;9.75;8.18;;;;;;;14.44;77.49;100736.47;15551940;28;20160;-48
2023/07/22 02:27:41;;;;;;;8.98;8.07;;;;;;;14.10;78.82;100744.31;15494361;28;20050;-50
2023/07/22 02:35:14;;;;;;;8.32;7.53;;;;;;;13.97;79.02;100763.44;15522539;28;20388;-50
2023/07/22 02:42:48;;;;;;;7.93;6.43;;;;;;;13.76;79.22;100762.94;15533921;28;20053;-49
2023/07/22 02:50:21;;;;;;;7.03;6.32;;;;;;;13.52;80.15;100774.66;15497680;28;20494;-48
2023/07/22 02:57:55;;;;;;;7.18;6.47;;;;;;;13.95;78.28;100787.97;15549678;28;20121;-47
2023/07/22 03:05:28;;;;;;;6.90;5.75;;;;;;;13.99;76.82;100772.13;15544459;28;20058;-46
2023/07/22 03:13:03;;;;;;;6.22;5.43;;;;;;;13.93;77.81;100786.53;15538111;28;20379;-48
2023/07/22 03:20:36;;;;;;;6.47;5.03;;;;;;;13.75;77.67;100787.41;15561760;28;20517;-48
2023/07/22 03:28:11;;;;;;;7.55;4.75;;;;;;;13.41;78.11;100795.16;15529106;28;20498;-48
2023/07/22 03:35:45;;;;;;;7.15;4.88;;;;;;;13.42;78.51;100801.34;15543395;28;20052;-49
2023/07/22 03:43:19;;;;;;;8.45;4.90;;;;;;;13.60;78.07;100811.28;15559956;28;20115;-47
2023/07/22 03:50:52;;;;;;;7.13;4.82;;;;;;;13.58;77.29;100814.22;15558805;28;20148;-51
2023/07/22 03:58:26;;;;;;;8.57;5.50;;;;;;;13.97;75.88;100818.22;15542005;28;20038;-49
2023/07/22 04:05:59;;;;;;;8.32;5.60;;;;;;;13.56;78.00;100819.00;15541399;28;20108;-49
2023/07/22 04:13:48;;;;;;;6.65;5.30;;;;;;;13.92;76.90;100822.66;15541924;28;20052;-50
2023/07/22 04:21:22;;;;;;;6.88;5.50;;;;;;;13.59;78.50;100833.91;15559086;28;20045;-52
2023/07/22 04:28:56;;;;;;;10.27;5.82;;;;;;;13.71;78.27;100832.94;15540854;28;20045;-51
2023/07/22 04:36:29;;;;;;;9.38;7.05;;;;;;;13.78;78.02;100840.91;15557859;28;20042;-46
2023/07/22 04:44:04;;;;;;;10.88;8.30;;;;;;;13.90;77.92;100838.28;15557302;28;20123;-55
2023/07/22 04:51:37;;;;;;;11.05;8.63;;;;;;;13.85;78.40;100844.34;15539229;28;20521;-51
2023/07/22 04:59:12;;;;;;;15.07;8.23;;;;;;;14.28;76.92;100846.00;15556610;28;20081;-48
2023/07/22 05:06:44;;;;;;;11.25;8.20;;;;;;;14.95;75.40;100848.41;15554432;28;20371;-52
2023/07/22 05:14:19;;;;;;;13.88;8.13;;;;;;;14.64;77.15;100869.34;15526000;23;20051;-51
2023/07/22 05:21:52;;;;;;;12.73;8.13;;;;;;;14.41;76.15;100867.41;15426415;28;20074;-49
2023/07/22 05:29:26;;;;;;;13.10;8.65;;;;;;;14.72;75.34;100874.38;15426886;28;20129;-47
2023/07/22 05:36:59;;;;;;;14.35;8.25;;;;;;;14.67;75.31;100873.44;15426506;28;20069;-49
2023/07/22 05:44:33;;;;;;;12.07;8.03;;;;;;;14.80;74.54;100878.63;15460445;28;20047;-49
2023/07/22 05:52:06;;;;;;;11.48;7.95;;;;;;;15.18;73.75;100874.59;15486929;28;20070;-50
2023/07/22 05:59:41;;;;;;;10.23;7.10;;;;;;;15.00;72.56;100879.06;15464622;28;20046;-49
2023/07/22 06:07:14;;;;;;;16.30;7.28;;;;;;;15.70;71.23;100888.13;15426451;28;20098;-50
2023/07/22 06:14:48;;;;;;;9.52;5.35;;;;;;;15.98;70.09;100906.28;15393025;28;20563;-50
2023/07/22 06:22:21;;;;;;;9.73;5.35;;;;;;;15.80;69.35;100899.97;15426566;28;20069;-52
2023/07/22 06:29:55;;;;;;;12.07;5.18;;;;;;;16.12;67.84;100913.03;15398386;28;20058;-52
2023/07/22 06:37:28;;;;;;;7.20;4.82;;;;;;;16.16;68.34;100921.50;15401385;28;20341;-48
2023/07/22 06:45:02;;;;;;;11.57;5.28;;;;;;;16.22;66.25;100913.22;15413284;28;20094;-48
2023/07/22 06:52:39;;;;;;;12.63;5.35;;;;;;;16.83;64.76;100917.00;15406643;28;20496;-48
2023/07/22 07:00:13;;;;;;;9.15;4.43;;;;;;;16.64;63.01;100909.31;15396731;28;20051;-47
2023/07/22 07:07:46;;;;;;;9.23;4.78;;;;;;;17.03;62.68;100926.53;15414340;28;20051;-49
2023/07/22 07:15:20;;;;;;;7.60;4.53;;;;;;;17.92;62.63;100912.78;15389900;28;20421;-49
2023/07/22 07:22:53;;;;;;;8.05;4.75;;;;;;;17.66;58.39;100914.34;15420266;28;21446;-45
2023/07/22 07:30:27;;;;;;;7.75;4.78;;;;;;;17.32;59.46;100916.34;15399808;28;20421;-49
2023/07/22 07:38:00;;;;;;;9.52;4.50;;;;;;;18.02;58.30;100922.94;15424339;28;20043;-48
2023/07/22 07:45:34;;;;;;;13.93;4.50;;;;;;;18.69;56.48;100932.56;15433488;28;20070;-49
2023/07/22 07:53:07;;;;;;;8.43;3.85;;;;;;;17.80;56.69;100936.53;15432955;28;20062;-51
2023/07/22 08:00:41;;;;;;;;;;;;;;;17.49;57.00;100946.16;15415997;28;20034;-49
2023/07/22 08:08:14;;;;;;;6.53;4.15;;;;;;;18.51;54.56;100950.03;15431950;28;19922;-49
2023/07/22 08:15:48;;;;;;;6.90;4.35;;;;;;;18.96;54.22;100946.91;15432096;28;20043;-49
2023/07/22 08:23:21;;;;;;;8.32;4.20;;;;;;;18.54;52.63;100947.63;15432149;28;20043;-49
2023/07/22 08:30:56;;;;;;;;;;;;;;;18.16;53.97;100948.63;15414636;28;20039;-49
2023/07/22 08:38:30;;;;;;;7.88;4.47;;;;;;;18.15;53.79;100968.72;15430842;28;20355;-50
2023/07/22 08:46:07;;;;;;;6.72;4.20;;;;;;;17.74;52.86;100967.41;15413062;28;20142;-50
2023/07/22 08:53:40;;;;;;;6.72;4.05;;;;;;;17.95;52.21;100973.91;15412153;28;20535;-51
2023/07/22 09:01:14;;;;;;;7.60;3.95;;;;;;;18.58;53.04;100969.69;15427433;28;20051;-50
2023/07/22 09:08:48;;;;;;;6.28;3.92;;;;;;;19.47;51.12;100969.03;15412358;28;20051;-51
2023/07/22 09:16:23;;;;;;;6.85;3.63;;;;;;;19.24;49.55;100961.25;15377572;28;20055;-50
2023/07/22 09:23:55;;;;;;;7.15;3.72;;;;;;;19.67;50.71;100959.34;15368383;28;20047;-49
2023/07/22 09:31:30;;;;;;;6.03;3.70;;;;;;;18.85;49.16;100965.06;15349873;29;20130;-47
2023/07/22 09:39:04;;;;;;;6.15;3.85;;;;;;;19.38;48.60;100967.88;15367304;28;20485;-48
2023/07/22 09:46:38;;;;;;;7.50;4.30;;;;;;;18.38;49.44;100966.78;15367268;28;20047;-49
2023/07/22 09:54:11;;;;;;;6.40;4.10;;;;;;;19.31;48.39;100978.19;15411809;28;20470;-53
2023/07/22 10:01:48;;;;;;;8.20;4.03;;;;;;;19.60;47.70;100978.66;15365296;28;20568;-52
2023/07/22 10:09:26;;;;;;;6.10;4.30;;;;;;;19.84;46.10;100971.69;15398855;28;20050;-48
2023/07/22 10:17:01;;;;;;;8.38;4.50;;;;;;;20.06;46.90;100965.25;15411524;28;20497;-54
2023/07/22 10:24:34;;;;;;;6.80;4.40;;;;;;;20.24;44.55;100966.66;15427075;28;20098;-48
2023/07/22 10:32:08;;;;;;;6.85;4.40;;;;;;;20.45;44.86;100965.59;15414040;28;20051;-51
2023/07/22 10:39:41;;;;;;;7.63;4.35;;;;;;;20.88;46.31;100958.00;15413739;28;20484;-51
2023/07/22 10:47:33;;;;;;;6.38;4.70;;;;;;;20.50;45.50;100967.53;15419355;28;20126;-55
2023/07/22 10:55:15;;;;;;;8.32;4.45;;;;;;;19.60;46.34;100967.78;15404804;28;20146;-50
2023/07/22 11:03:09;;;;;;;6.75;4.43;;;;;;;21.32;41.28;100951.97;15434811;28;20150;-52
2023/07/22 11:10:54;;;;;;;7.72;4.55;;;;;;;20.47;42.93;100968.03;15427381;28;20055;-50
2023/07/22 11:18:38;;;;;;;6.30;4.28;;;;;;;21.46;41.40;100954.94;15396328;28;20064;-56
2023/07/22 11:26:11;;;;;;;6.80;4.32;;;;;;;21.69;41.57;100954.31;15434135;28;20057;-52
2023/07/22 11:33:47;;;;;;;7.72;4.90;;;;;;;22.05;40.03;100948.66;15434426;28;20050;-54
2023/07/22 11:41:20;;;;;;;7.25;4.60;;;;;;;22.64;39.09;100943.09;15433940;28;20050;-53
2023/07/22 11:48:56;;;;;;;5.97;3.53;;;;;;;23.81;38.17;100943.88;15433851;28;20126;-51
2023/07/22 11:56:29;;;;;;;7.97;3.78;;;;;;;23.66;37.26;100933.91;15415647;28;20053;-51
2023/07/22 12:04:11;;;;;;;5.40;4.35;;;;;;;23.13;37.35;100942.16;15433339;28;20059;-55
2023/07/22 12:11:44;;;;;;;5.47;3.90;;;;;;;23.67;37.73;100932.78;15432765;28;20055;-55
2023/07/22 12:19:18;;;;;;;4.97;3.72;;;;;;;22.57;37.87;100933.56;15431253;28;20065;-52
2023/07/22 12:26:51;;;;;;;5.40;4.00;;;;;;;24.30;36.01;100920.69;15421851;28;20058;-53
2023/07/22 12:34:25;;;;;;;5.65;3.95;;;;;;;22.57;38.61;100914.44;15418154;28;20050;-56
2023/07/22 12:41:58;;;;;;;5.55;3.88;;;;;;;22.61;38.94;100912.75;15385777;28;20047;-52
2023/07/22 12:49:32;;;;;;;7.32;4.10;;;;;;;23.06;38.09;100902.53;15407033;28;20524;-56
2023/07/22 12:57:05;;;;;;;6.70;4.05;;;;;;;22.15;39.53;100910.38;15391689;28;20047;-53
2023/07/22 13:04:39;;;;;;;5.63;3.63;;;;;;;22.57;39.62;100918.00;15397446;28;20432;-55
2023/07/22 13:12:12;;;;;;;5.65;4.22;;;;;;;22.83;40.45;100923.25;15408129;28;20122;-52
2023/07/22 13:19:46;;;;;;;5.32;4.15;;;;;;;22.39;39.88;100913.22;15389632;28;20142;-54
2023/07/22 13:27:19;;;;;;;6.18;4.00;;;;;;;22.01;39.21;100906.59;15407975;28;20051;-48
2023/07/22 13:34:54;;;;;;;5.10;3.83;;;;;;;22.05;42.23;100911.22;15415979;28;20496;-51
2023/07/22 13:42:27;;;;;;;7.68;4.18;;;;;;;22.75;41.79;100905.50;15422609;28;20075;-53
2023/07/22 13:50:01;;;;;;;5.97;3.97;;;;;;;23.66;39.29;100892.00;15425417;28;20113;-54
2023/07/22 13:57:34;;;;;;;7.88;4.20;;;;;;;22.54;39.95;100904.06;15376212;28;20460;-52
2023/07/22 14:05:11;;;;;;;5.95;4.50;;;;;;;22.15;41.92;100889.31;15427237;28;20046;-55
2023/07/22 14:12:44;;;;;;;5.55;3.97;;;;;;;22.31;41.61;100889.22;15425337;28;20553;-52
2023/07/22 14:20:19;;;;;;;5.25;3.83;;;;;;;23.02;39.16;100883.13;15354834;28;20142;-47
2023/07/22 14:27:52;;;;;;;5.30;3.95;;;;;;;23.47;38.96;100880.16;15419611;28;20054;-52
2023/07/22 14:35:26;;;;;;;5.90;4.30;;;;;;;22.38;39.78;100879.59;15425734;28;20050;-54
2023/07/22 14:42:59;;;;;;;7.28;3.88;;;;;;;22.94;38.84;100869.25;15424683;28;20082;-54
2023/07/22 14:50:33;;;;;;;7.35;3.92;;;;;;;22.59;40.72;100868.47;15424619;28;20045;-54
2023/07/22 14:58:06;;;;;;;5.15;4.20;;;;;;;22.42;39.77;100857.94;15362410;28;20126;-51
2023/07/22 15:05:40;;;;;;;5.90;3.90;;;;;;;22.47;41.03;100863.34;15424256;28;20047;-49
2023/07/22 15:13:13;;;;;;;6.55;4.40;;;;;;;22.19;41.76;100866.88;15426614;28;20073;-53
2023/07/22 15:20:47;;;;;;;5.85;4.15;;;;;;;21.89;39.99;100869.50;15425805;28;20050;-53
2023/07/22 15:28:23;;;;;;;4.70;4.13;;;;;;;21.88;41.46;100867.06;15415715;28;20038;-53
2023/07/22 15:35:58;;;;;;;5.93;4.15;;;;;;;22.39;39.72;100853.06;15445025;28;20085;-54
2023/07/22 15:43:34;;;;;;;4.65;3.88;;;;;;;22.65;39.48;100851.69;15433413;28;20090;-50
2023/07/22 15:51:08;;;;;;;3.90;3.13;;;;;;;22.78;39.78;100855.69;15422378;28;20463;-52
2023/07/22 15:58:41;;;;;;;4.20;3.53;;;;;;;22.42;38.94;100847.81;15433727;28;20077;-54
2023/07/22 16:06:15;;;;;;;4.15;3.15;;;;;;;22.35;38.96;100839.13;15433242;28;20073;-53
2023/07/22 16:13:49;;;;;;;5.63;2.92;;;;;;;22.35;38.96;100827.38;15415021;28;20086;-54
2023/07/22 16:21:23;;;;;;;4.18;2.95;;;;;;;22.02;38.93;100834.44;15414652;28;20106;-51
2023/07/22 16:28:56;;;;;;;4.03;3.00;;;;;;;22.40;40.10;100839.09;15431170;28;20137;-54
2023/07/22 16:36:30;;;;;;;5.28;2.97;;;;;;;22.88;39.41;100841.91;15431639;28;20051;-55
2023/07/22 16:44:03;;;;;;;4.70;3.00;;;;;;;22.38;40.68;100846.78;15413799;28;20038;-56
2023/07/22 16:51:37;;;;;;;8.60;3.50;;;;;;;22.76;40.32;100827.81;15427952;28;20047;-55
2023/07/22 16:59:10;;;;;;;6.07;3.10;;;;;;;22.78;40.04;100830.25;15428631;28;20042;-55
2023/07/22 17:06:44;;;;;;;3.60;2.78;;;;;;;22.35;39.06;100824.66;15428947;28;20150;-56
2023/07/22 17:14:16;;;;;;;7.43;3.22;;;;;;;22.24;40.93;100825.81;15428973;28;20046;-52
2023/07/22 17:21:51;;;;;;;5.10;3.30;;;;;;;22.66;40.53;100814.22;15432927;28;20040;-54
2023/07/22 17:29:23;;;;;;;4.13;3.33;;;;;;;23.00;38.58;100816.91;15428076;28;20065;-51
2023/07/22 17:36:58;;;;;;;5.65;3.42;;;;;;;22.74;40.38;100810.84;15427791;28;20058;-49
2023/07/22 17:44:31;;;;;;;4.63;3.00;;;;;;;22.88;40.65;100809.06;15410044;28;20066;-50
2023/07/22 17:52:06;;;;;;;4.35;3.30;;;;;;;23.05;40.42;100796.88;15427299;28;20047;-48
2023/07/22 17:59:39;;;;;;;3.95;3.30;;;;;;;22.20;41.65;100795.50;15426744;28;20042;-48
2023/07/22 18:07:13;;;;;;;4.55;3.63;;;;;;;22.47;42.12;100788.69;15409011;28;20054;-50
2023/07/22 18:14:46;;;;;;;7.55;3.80;;;;;;;22.39;39.02;100784.69;15409099;28;20510;-54
2023/07/22 18:22:20;;;;;;;4.53;3.70;;;;;;;22.40;38.56;100789.84;15425369;28;20110;-52
2023/07/22 18:29:58;;;;;;;6.38;3.50;;;;;;;22.34;38.01;100788.28;15409363;28;20044;-50
2023/07/22 18:37:33;;;;;;;5.55;4.00;;;;;;;22.34;39.12;100785.53;15436081;28;20053;-53
2023/07/22 18:45:07;;;;;;;5.53;4.07;;;;;;;22.21;41.18;100791.66;15437781;28;20046;-50
2023/07/22 18:52:41;;;;;;;5.97;3.80;;;;;;;22.03;41.66;100786.88;15436491;28;20047;-49
2023/07/22 19:00:15;;;;;;;5.25;3.83;;;;;;;21.76;42.52;100782.69;15436299;28;20266;-50
2023/07/22 19:07:50;;;;;;;6.80;3.65;;;;;;;21.06;45.75;100787.41;15418270;28;20042;-49
2023/07/22 19:15:22;;;;;;;5.68;4.20;;;;;;;20.74;43.12;100788.59;15393198;28;20469;-49
2023/07/22 19:22:56;;;;;;;7.05;4.20;;;;;;;20.71;42.54;100786.44;15375456;28;20051;-49
2023/07/22 19:30:29;;;;;;;7.13;4.22;;;;;;;20.81;44.73;100789.13;15375120;29;20058;-48
2023/07/22 19:38:04;;;;;;;7.63;4.40;;;;;;;20.23;46.95;100804.19;15375851;28;20061;-49
2023/07/22 19:45:36;;;;;;;7.32;4.20;;;;;;;19.96;47.64;100794.38;15372516;28;20150;-51
2023/07/22 19:53:16;;;;;;;9.73;4.55;;;;;;;19.88;46.61;100787.53;15372721;28;20058;-53
2023/07/22 20:00:48;;;;;;;6.55;4.72;;;;;;;19.96;46.84;100788.94;15373503;29;20043;-49
2023/07/22 20:08:22;;;;;;;;;;;;;;;19.46;48.88;100779.53;15356528;29;20051;-49
2023/07/22 20:15:55;;;;;;;6.65;4.32;;;;;;;19.28;49.67;100782.75;15403368;28;20025;-49
2023/07/22 20:23:29;;;;;;;7.43;5.30;;;;;;;19.20;50.30;100785.97;15431602;28;20122;-49
2023/07/22 20:31:02;;;;;;;7.53;4.82;;;;;;;18.95;51.05;100781.25;15432212;28;20049;-50
2023/07/22 20:38:36;;;;;;;7.65;4.70;;;;;;;19.04;49.81;100771.50;15430555;28;20158;-50
2023/07/22 20:46:09;;;;;;;5.95;4.88;;;;;;;19.16;47.96;100768.56;15429811;28;20601;-52
2023/07/22 20:53:43;;;;;;;8.13;5.07;;;;;;;19.13;47.88;100761.75;15429107;28;20051;-49
2023/07/22 21:01:17;;;;;;;7.32;4.90;;;;;;;19.21;47.84;100744.06;15427145;28;20058;-47
2023/07/22 21:08:51;;;;;;;8.18;5.38;;;;;;;19.43;47.97;100757.47;15412648;28;20051;-51
2023/07/22 21:16:25;;;;;;;7.70;6.20;;;;;;;19.35;48.21;100753.38;15420220;28;20042;-49
2023/07/22 21:23:59;;;;;;;;;;;;;;;19.35;48.05;100747.91;15428515;28;20460;-54
2023/07/22 21:31:33;;;;;;;7.22;5.78;;;;;;;19.29;48.43;100747.09;15426532;28;20331;-51
2023/07/22 21:39:07;;;;;;;7.88;5.93;;;;;;;19.30;48.47;100747.91;15405667;28;20492;-50
2023/07/22 21:46:40;;;;;;;9.50;5.68;;;;;;;19.37;48.27;100743.03;15418758;28;20147;-52
2023/07/22 21:54:15;;;;;;;7.40;6.05;;;;;;;19.24;48.42;100728.03;15427265;28;20065;-51
2023/07/22 22:01:48;;;;;;;8.40;5.60;;;;;;;19.02;49.29;100727.41;15409191;28;20047;-48
2023/07/22 22:09:22;;;;;;;8.70;6.07;;;;;;;19.18;50.01;100734.56;15425408;28;20080;-49
2023/07/22 22:16:55;;;;;;;8.10;6.05;;;;;;;18.92;49.05;100733.63;15426372;28;20071;-47
2023/07/22 22:24:31;;;;;;;;;;;;;;;18.95;48.51;100730.41;15426311;28;20039;-48
2023/07/22 22:32:05;;;;;;;7.35;5.63;;;;;;;19.26;48.87;100716.91;15426108;28;19933;-49
2023/07/22 22:39:39;;;;;;;12.00;6.40;;;;;;;19.15;48.81;100718.75;15425678;28;20078;-50
2023/07/22 22:47:12;;;;;;;7.68;5.63;;;;;;;19.08;48.64;100710.03;15408777;28;20054;-53
2023/07/22 22:54:46;;;;;;;8.70;5.35;;;;;;;18.40;49.98;100706.44;15426505;28;20047;-49
2023/07/22 23:02:19;;;;;;;8.45;5.50;;;;;;;18.42;49.53;100693.38;15425727;28;20051;-49
2023/07/22 23:09:53;;;;;;;9.60;5.57;;;;;;;18.10;50.34;100697.84;15427217;28;20102;-51
2023/07/22 23:17:26;;;;;;;7.68;5.85;;;;;;;18.04;50.81;100690.72;15427693;28;20130;-51
2023/07/22 23:25:01;;;;;;;7.60;5.63;;;;;;;17.96;50.89;100691.22;15418298;28;20628;-53
2023/07/22 23:32:35;;;;;;;9.68;6.70;;;;;;;17.97;50.42;100681.16;15434680;28;20138;-53
2023/07/22 23:40:09;;;;;;;;;;;;;;;17.87;50.62;100678.38;15435255;28;20098;-50
2023/07/22 23:47:43;;;;;;;8.93;5.90;;;;;;;18.12;49.89;100664.16;15434056;28;19922;-50
2023/07/22 23:55:17;;;;;;;7.68;5.97;;;;;;;17.98;50.43;100664.59;15416266;28;20073;-51
